Private Wetterstation Wechselburg
Wetterdaten: Dienstag, 11.04.2023
Datum Zeit Temp. +2m Bodentemp. Temp.+5cm Temp. Wind Windchill X Diff Temp. Feuchte +2m Feuchte +5cm Luftdruck Regen Wind Richtung Richtung Sonnenschein Taupunkt Windchill Windben
11.04.2023 00:00 9,7 C 11,8 C 8,5 C 9,5 C 9,0 C 0,0 C 63 % 46 % 1016,1 hPa 0,0 l/m 0,0 km/h (0 Bft) O-NO 67 0 min 3,0 C 9,0 C 0,0 km/h (0 Bft)
11.04.2023 00:05 9,6 C 11,8 C 8,7 C 9,4 C 8,9 C 0,0 C 63 % 46 % 1016,5 hPa 0,0 l/m 0,0 km/h (0 Bft) O-NO 67 0 min 2,9 C 8,9 C 0,0 km/h (0 Bft)
11.04.2023 00:11 9,6 C 11,8 C 9,0 C 9,4 C 9,0 C 0,0 C 64 % 46 % 1016,5 hPa 0,0 l/m 0,0 km/h (0 Bft) O-NO 67 0 min 3,1 C 9,0 C 0,0 km/h (0 Bft)
11.04.2023 00:12 9,6 C 11,8 C 9,0 C 9,4 C 9,0 C 0,0 C 64 % 46 % 1016,5 hPa 0,0 l/m 0,0 km/h (0 Bft) O-NO 67 0 min 3,1 C 9,0 C 0,0 km/h (0 Bft)
11.04.2023 00:15 9,6 C 11,8 C 9,0 C 9,4 C 9,0 C 0,0 C 64 % 46 % 1016,5 hPa 0,0 l/m 0,0 km/h (0 Bft) O-NO 67 0 min 3,1 C 9,0 C 0,0 km/h (0 Bft)
11.04.2023 00:23 9,6 C 11,8 C 9,0 C 9,4 C 9,1 C 0,0 C 65 % 46 % 1016,5 hPa 0,0 l/m 0,0 km/h (0 Bft) NO 45 0 min 3,4 C 9,1 C 0,0 km/h (0 Bft)
11.04.2023 00:24 9,6 C 11,8 C 9,0 C 9,4 C 9,1 C 0,0 C 65 % 46 % 1016,5 hPa 0,0 l/m 0,0 km/h (0 Bft) NO 45 0 min 3,4 C 9,1 C 0,0 km/h (0 Bft)
11.04.2023 00:25 9,6 C 11,8 C 9,0 C 9,4 C 9,1 C 0,0 C 65 % 46 % 1016,5 hPa 0,0 l/m 0,0 km/h (0 Bft) NO 45 0 min 3,4 C 9,1 C 0,0 km/h (0 Bft)
11.04.2023 00:26 9,6 C 11,8 C 8,6 C 9,4 C 9,0 C 0,0 C 65 % 46 % 1016,5 hPa 0,0 l/m 0,0 km/h (0 Bft) O-NO 67 0 min 3,4 C 9,0 C 0,0 km/h (0 Bft)
11.04.2023 00:27 9,6 C 11,8 C 8,6 C 9,4 C 9,0 C 0,0 C 65 % 46 % 1016,5 hPa 0,0 l/m 0,0 km/h (0 Bft) O-NO 67 0 min 3,4 C 9,0 C 0,0 km/h (0 Bft)
11.04.2023 00:29 9,6 C 11,8 C 8,6 C 9,4 C 9,0 C 0,0 C 65 % 46 % 1016,5 hPa 0,0 l/m 0,0 km/h (0 Bft) O-NO 67 0 min 3,4 C 9,0 C 0,0 km/h (0 Bft)
11.04.2023 00:30 9,6 C 11,8 C 8,6 C 9,4 C 9,0 C 0,0 C 65 % 46 % 1016,5 hPa 0,0 l/m 0,0 km/h (0 Bft) O-NO 67 0 min 3,4 C 9,0 C 0,0 km/h (0 Bft)
11.04.2023 00:35 9,5 C 11,8 C 8,4 C 9,3 C 8,9 C 0,0 C 65 % 47 % 1016,5 hPa 0,0 l/m 0,0 km/h (0 Bft) NW 315 0 min 3,3 C 8,9 C 0,0 km/h (0 Bft)
11.04.2023 00:40 9,4 C 11,8 C 8,3 C 9,2 C 8,8 C 0,0 C 65 % 48 % 1016,5 hPa 0,0 l/m 0,0 km/h (0 Bft) N 360 0 min 3,2 C 8,8 C 0,0 km/h (0 Bft)
11.04.2023 00:45 9,5 C 11,7 C 8,2 C 9,2 C 8,7 C 0,0 C 65 % 48 % 1015,3 hPa 0,0 l/m 0,0 km/h (0 Bft) O-NO 67 0 min 3,3 C 8,7 C 0,0 km/h (0 Bft)
11.04.2023 00:50 9,4 C 11,7 C 8,3 C 9,1 C 8,6 C 0,0 C 65 % 49 % 1015,3 hPa 0,0 l/m 0,0 km/h (0 Bft) O-NO 67 0 min 3,2 C 8,6 C 0,0 km/h (0 Bft)
11.04.2023 00:55 9,3 C 11,7 C 8,2 C 9,1 C 8,6 C 0,0 C 65 % 49 % 1015,3 hPa 0,0 l/m 0,0 km/h (0 Bft) O-NO 67 0 min 3,1 C 8,6 C 0,0 km/h (0 Bft)
11.04.2023 01:00 9,3 C 11,7 C 8,4 C 9,1 C 8,6 C 0,0 C 66 % 49 % 1015,3 hPa 0,0 l/m 0,0 km/h (0 Bft) O 90 0 min 3,3 C 8,6 C 0,0 km/h (0 Bft)
11.04.2023 01:05 9,3 C 11,7 C 8,7 C 9,1 C 8,7 C 0,0 C 66 % 49 % 1014,7 hPa 0,0 l/m 0,0 km/h (0 Bft) O-NO 67 0 min 3,3 C 8,7 C 0,0 km/h (0 Bft)
11.04.2023 01:10 9,3 C 11,7 C 8,6 C 9,1 C 8,8 C 0,0 C 66 % 49 % 1014,7 hPa 0,0 l/m 0,0 km/h (0 Bft) NO 45 0 min 3,3 C 8,8 C 0,0 km/h (0 Bft)
11.04.2023 01:16 9,5 C 11,7 C 8,6 C 9,3 C 8,9 C 0,0 C 66 % 50 % 1014,7 hPa 0,0 l/m 0,0 km/h (0 Bft) SO 135 0 min 3,5 C 8,9 C 0,0 km/h (0 Bft)
11.04.2023 01:20 9,5 C 11,7 C 8,6 C 9,3 C 8,9 C 0,0 C 66 % 50 % 1014,7 hPa 0,0 l/m 0,0 km/h (0 Bft) SO 135 0 min 3,5 C 8,9 C 0,0 km/h (0 Bft)
11.04.2023 01:27 9,5 C 11,7 C 8,6 C 9,3 C 9,0 C 0,0 C 66 % 49 % 1014,3 hPa 0,0 l/m 0,0 km/h (0 Bft) O-NO 67 0 min 3,5 C 9,0 C 0,0 km/h (0 Bft)
11.04.2023 01:28 9,5 C 11,7 C 8,6 C 9,3 C 9,0 C 0,0 C 66 % 49 % 1014,3 hPa 0,0 l/m 0,0 km/h (0 Bft) O-NO 67 0 min 3,5 C 9,0 C 0,0 km/h (0 Bft)
11.04.2023 01:29 9,5 C 11,7 C 8,6 C 9,3 C 9,0 C 0,0 C 66 % 49 % 1014,3 hPa 0,0 l/m 0,0 km/h (0 Bft) O-NO 67 0 min 3,5 C 9,0 C 0,0 km/h (0 Bft)
11.04.2023 01:30 9,5 C 11,7 C 8,6 C 9,3 C 9,0 C 0,0 C 66 % 49 % 1014,3 hPa 0,0 l/m 0,0 km/h (0 Bft) O-NO 67 0 min 3,5 C 9,0 C 0,0 km/h (0 Bft)
11.04.2023 01:31 9,5 C 11,7 C 8,3 C 9,3 C 9,0 C 0,0 C 66 % 49 % 1014,3 hPa 0,0 l/m 0,0 km/h (0 Bft) N-NO 22 0 min 3,5 C 9,0 C 0,0 km/h (0 Bft)
11.04.2023 01:33 9,5 C 11,7 C 8,3 C 9,3 C 9,0 C 0,0 C 66 % 49 % 1014,3 hPa 0,0 l/m 0,0 km/h (0 Bft) N-NO 22 0 min 3,5 C 9,0 C 0,0 km/h (0 Bft)
11.04.2023 01:35 9,5 C 11,7 C 8,3 C 9,3 C 9,0 C 0,0 C 66 % 49 % 1014,3 hPa 0,0 l/m 0,0 km/h (0 Bft) N-NO 22 0 min 3,5 C 9,0 C 0,0 km/h (0 Bft)
11.04.2023 01:40 9,4 C 11,7 C 8,3 C 9,2 C 8,9 C 0,0 C 66 % 49 % 1014,3 hPa 0,0 l/m 0,0 km/h (0 Bft) O-NO 67 0 min 3,4 C 8,9 C 0,0 km/h (0 Bft)
11.04.2023 01:45 9,5 C 11,7 C 8,4 C 9,3 C 8,9 C 0,0 C 66 % 49 % 1013,7 hPa 0,0 l/m 0,0 km/h (0 Bft) NO 45 0 min 3,5 C 8,9 C 0,0 km/h (0 Bft)
11.04.2023 01:50 9,5 C 11,7 C 8,2 C 9,3 C 8,9 C 0,0 C 66 % 49 % 1013,7 hPa 0,0 l/m 0,0 km/h (0 Bft) O 90 0 min 3,5 C 8,9 C 0,0 km/h (0 Bft)
11.04.2023 01:55 9,5 C 11,7 C 8,2 C 9,3 C 8,9 C 0,0 C 66 % 49 % 1013,7 hPa 0,0 l/m 0,0 km/h (0 Bft) O-NO 67 0 min 3,5 C 8,9 C 0,0 km/h (0 Bft)
11.04.2023 02:00 9,4 C 11,6 C 8,3 C 9,2 C 8,8 C 0,0 C 66 % 49 % 1013,7 hPa 0,0 l/m 0,0 km/h (0 Bft) O-NO 67 0 min 3,4 C 8,8 C 0,0 km/h (0 Bft)
11.04.2023 02:05 9,3 C 11,6 C 8,2 C 9,1 C 8,7 C 0,0 C 66 % 49 % 1013,2 hPa 0,0 l/m 0,0 km/h (0 Bft) O-SO 112 0 min 3,3 C 8,7 C 0,0 km/h (0 Bft)
11.04.2023 02:11 9,3 C 11,6 C 8,2 C 9,1 C 8,8 C 0,0 C 66 % 49 % 1013,2 hPa 0,0 l/m 0,0 km/h (0 Bft) N 0 0 min 3,3 C 8,8 C 0,0 km/h (0 Bft)
11.04.2023 02:34 9,5 C 11,6 C 8,8 C 9,4 C 9,1 C 0,0 C 64 % 46 % 1012,7 hPa 0,0 l/m 0,0 km/h (0 Bft) O-SO 112 0 min 3,0 C 9,1 C 0,0 km/h (0 Bft)
11.04.2023 02:40 9,6 C 11,6 C 9,1 C 9,5 C 9,4 C 0,0 C 64 % 46 % 1012,7 hPa 0,0 l/m 0,0 km/h (0 Bft) O-NO 67 0 min 3,1 C 9,4 C 0,0 km/h (0 Bft)
11.04.2023 02:45 9,7 C 11,6 C 8,9 C 9,6 C 9,4 C 0,0 C 63 % 46 % 1012,7 hPa 0,0 l/m 0,0 km/h (0 Bft) S-SW 202 0 min 3,0 C 9,4 C 0,0 km/h (0 Bft)
11.04.2023 02:50 9,7 C 11,6 C 8,9 C 9,6 C 9,5 C 0,0 C 63 % 45 % 1012,7 hPa 0,0 l/m 0,0 km/h (0 Bft) O-SO 112 0 min 3,0 C 9,5 C 0,0 km/h (0 Bft)
11.04.2023 02:55 9,7 C 11,6 C 8,9 C 9,6 C 9,4 C 0,0 C 63 % 45 % 1012,7 hPa 0,0 l/m 0,0 km/h (0 Bft) NO 45 0 min 3,0 C 9,4 C 0,0 km/h (0 Bft)
11.04.2023 03:00 9,7 C 11,6 C 8,7 C 9,6 C 9,4 C 0,0 C 62 % 45 % 1012,7 hPa 0,0 l/m 0,0 km/h (0 Bft) S-SO 157 0 min 2,8 C 9,4 C 0,0 km/h (0 Bft)
11.04.2023 03:05 9,6 C 11,6 C 8,6 C 9,5 C 9,4 C 0,0 C 62 % 45 % 1012,9 hPa 0,0 l/m 0,0 km/h (0 Bft) S 180 0 min 2,7 C 9,4 C 0,0 km/h (0 Bft)
11.04.2023 03:10 9,7 C 11,6 C 8,5 C 9,6 C 9,4 C 0,0 C 62 % 46 % 1012,9 hPa 0,0 l/m 0,0 km/h (0 Bft) N-NO 22 0 min 2,8 C 9,4 C 0,0 km/h (0 Bft)
11.04.2023 03:15 9,6 C 11,5 C 8,9 C 9,5 C 9,4 C 0,0 C 61 % 43 % 1012,9 hPa 0,0 l/m 0,0 km/h (0 Bft) S-SW 202 0 min 2,5 C 9,4 C 0,0 km/h (0 Bft)
11.04.2023 03:20 9,9 C 11,5 C 9,1 C 9,8 C 9,7 C 0,0 C 61 % 43 % 1012,9 hPa 0,0 l/m 0,0 km/h (0 Bft) NO 45 0 min 2,7 C 9,7 C 0,0 km/h (0 Bft)
11.04.2023 03:25 9,9 C 11,5 C 9,1 C 9,8 C 9,7 C 0,0 C 61 % 42 % 1012,7 hPa 0,0 l/m 0,0 km/h (0 Bft) S-SO 157 0 min 2,7 C 9,7 C 0,0 km/h (0 Bft)
11.04.2023 03:30 9,9 C 11,5 C 9,1 C 9,8 C 9,7 C 0,0 C 60 % 42 % 1012,7 hPa 0,0 l/m 0,0 km/h (0 Bft) O-SO 112 0 min 2,5 C 9,7 C 0,0 km/h (0 Bft)
11.04.2023 03:35 9,9 C 11,5 C 9,3 C 9,8 C 9,7 C 0,0 C 60 % 42 % 1012,7 hPa 0,0 l/m 0,0 km/h (0 Bft) S 180 0 min 2,5 C 9,7 C 0,0 km/h (0 Bft)
11.04.2023 03:40 10,1 C 11,5 C 9,4 C 10,0 C 9,9 C 0,0 C 59 % 41 % 1012,7 hPa 0,0 l/m 0,0 km/h (0 Bft) SO 135 0 min 2,5 C 9,9 C 0,0 km/h (0 Bft)
11.04.2023 03:45 10,0 C 11,5 C 9,5 C 10,0 C 9,9 C 0,0 C 59 % 41 % 1012,5 hPa 0,0 l/m 0,0 km/h (0 Bft) N-NW 337 0 min 2,4 C 9,9 C 0,0 km/h (0 Bft)
11.04.2023 03:50 10,1 C 11,5 C 9,5 C 10,1 C 10,0 C 0,0 C 59 % 41 % 1012,5 hPa 0,0 l/m 0,0 km/h (0 Bft) SO 135 0 min 2,5 C 10,0 C 2,9 km/h (1 Bft)
11.04.2023 03:55 10,3 C 11,5 C 9,4 C 10,3 C 10,2 C 0,0 C 59 % 41 % 1012,5 hPa 0,0 l/m 0,3 km/h (0 Bft) S 180 0 min 2,6 C 10,2 C 0,0 km/h (0 Bft)
11.04.2023 04:00 10,3 C 11,5 C 9,3 C 10,3 C 10,2 C 0,0 C 59 % 42 % 1012,5 hPa 0,0 l/m 0,5 km/h (0 Bft) S-SO 157 0 min 2,6 C 10,2 C 4,0 km/h (1 Bft)
11.04.2023 04:05 10,4 C 11,5 C 9,2 C 10,3 C 10,2 C 0,0 C 59 % 43 % 1012,2 hPa 0,0 l/m 0,5 km/h (0 Bft) S 180 0 min 2,7 C 10,2 C 0,0 km/h (0 Bft)
11.04.2023 04:11 10,7 C 11,5 C 9,8 C 10,6 C 10,5 C 0,0 C 58 % 42 % 1012,2 hPa 0,0 l/m 1,3 km/h (1 Bft) N 0 0 min 2,8 C 10,5 C 9,3 km/h (2 Bft)
11.04.2023 04:26 10,6 C 11,5 C 9,3 C 10,1 C 9,2 C 0,0 C 62 % 51 % 1012,5 hPa 0,0 l/m 1,4 km/h (1 Bft) W-NW 292 0 min 3,6 C 9,2 C 0,0 km/h (0 Bft)
11.04.2023 04:27 10,6 C 11,5 C 9,3 C 10,1 C 9,2 C 0,0 C 62 % 51 % 1012,5 hPa 0,0 l/m 1,4 km/h (1 Bft) W-NW 292 0 min 3,6 C 9,2 C 0,0 km/h (0 Bft)
11.04.2023 04:46 9,7 C 11,5 C 8,2 C 9,0 C 7,6 C 0,0 C 68 % 65 % 1012,1 hPa 0,0 l/m 1,9 km/h (1 Bft) SO 135 0 min 4,1 C 7,6 C 15,0 km/h (3 Bft)
11.04.2023 05:00 9,3 C 11,5 C 8,1 C 8,7 C 7,4 C 0,0 C 71 % 67 % 1011,7 hPa 0,0 l/m 2,7 km/h (1 Bft) S-SW 202 0 min 4,3 C 7,4 C 0,0 km/h (0 Bft)
11.04.2023 05:05 9,3 C 11,5 C 8,1 C 8,7 C 7,4 C 0,0 C 71 % 67 % 1011,7 hPa 0,0 l/m 2,7 km/h (1 Bft) S-SW 202 0 min 4,3 C 7,4 C 0,0 km/h (0 Bft)
11.04.2023 05:10 9,2 C 11,6 C 8,0 C 8,6 C 7,3 C 0,0 C 73 % 67 % 1011,7 hPa 0,0 l/m 1,0 km/h (0 Bft) W 270 0 min 4,6 C 7,3 C 0,0 km/h (0 Bft)
11.04.2023 05:15 9,0 C 11,7 C 8,0 C 8,4 C 7,3 C 0,0 C 73 % 67 % 1011,7 hPa 0,0 l/m 0,6 km/h (0 Bft) O-SO 112 0 min 4,4 C 7,3 C 0,0 km/h (0 Bft)
11.04.2023 05:20 8,9 C 11,7 C 7,8 C 8,3 C 7,2 C 0,0 C 74 % 67 % 1011,7 hPa 0,0 l/m 0,0 km/h (0 Bft) O-SO 112 0 min 4,5 C 7,2 C 0,0 km/h (0 Bft)
11.04.2023 05:25 8,9 C 11,8 C 7,7 C 8,3 C 7,2 C 0,0 C 75 % 69 % 1012,4 hPa 0,7 l/m 0,3 km/h (0 Bft) S-SO 157 0 min 4,7 C 7,2 C 3,7 km/h (1 Bft)
11.04.2023 05:30 8,7 C 11,8 C 7,5 C 8,2 C 7,1 C 0,0 C 76 % 73 % 1012,4 hPa 0,0 l/m 0,8 km/h (0 Bft) S-SO 157 0 min 4,7 C 7,1 C 1,8 km/h (1 Bft)
11.04.2023 05:35 8,6 C 11,8 C 7,4 C 8,1 C 7,1 C 0,0 C 77 % 74 % 1012,4 hPa 0,0 l/m 1,0 km/h (0 Bft) S-SO 157 0 min 4,8 C 7,1 C 2,9 km/h (1 Bft)
11.04.2023 05:40 8,4 C 11,9 C 7,4 C 8,0 C 7,1 C 0,0 C 77 % 75 % 1012,4 hPa 0,0 l/m 0,5 km/h (0 Bft) S 180 0 min 4,6 C 7,1 C 0,0 km/h (0 Bft)
11.04.2023 05:45 8,5 C 11,9 C 7,3 C 8,0 C 7,1 C 0,0 C 78 % 76 % 1011,9 hPa 0,0 l/m 0,2 km/h (0 Bft) S 180 0 min 4,9 C 7,1 C 0,0 km/h (0 Bft)
11.04.2023 05:50 8,3 C 11,9 C 7,3 C 7,9 C 7,1 C 0,0 C 78 % 78 % 1011,9 hPa 0,0 l/m 0,0 km/h (0 Bft) SO 135 0 min 4,7 C 7,1 C 0,0 km/h (0 Bft)
11.04.2023 05:55 8,2 C 11,9 C 7,3 C 7,9 C 7,2 C 0,0 C 79 % 78 % 1011,9 hPa 0,0 l/m 0,0 km/h (0 Bft) O-NO 67 0 min 4,8 C 7,2 C 0,0 km/h (0 Bft)
11.04.2023 06:00 8,3 C 11,9 C 7,3 C 7,9 C 7,2 C 0,0 C 79 % 78 % 1011,9 hPa 0,7 l/m 0,0 km/h (0 Bft) O 90 0 min 4,9 C 7,2 C 0,0 km/h (0 Bft)
11.04.2023 06:05 8,2 C 11,9 C 7,4 C 7,9 C 7,3 C 0,0 C 80 % 79 % 1011,2 hPa 0,0 l/m 0,0 km/h (0 Bft) NO 45 0 min 5,0 C 7,3 C 0,0 km/h (0 Bft)
11.04.2023 06:11 8,3 C 11,8 C 7,5 C 8,0 C 7,4 C 0,0 C 81 % 80 % 1011,2 hPa 0,0 l/m 0,5 km/h (0 Bft) N 0 0 min 5,2 C 7,4 C 0,0 km/h (0 Bft)
11.04.2023 06:27 8,2 C 11,8 C 7,4 C 7,9 C 7,4 C 0,0 C 82 % 79 % 1011,0 hPa 0,0 l/m 0,2 km/h (0 Bft) O-NO 67 0 min 5,3 C 7,4 C 0,0 km/h (0 Bft)
11.04.2023 06:46 8,7 C 11,7 C 8,0 C 8,3 C 7,6 C 0,0 C 82 % 77 % 1010,9 hPa 0,0 l/m 2,9 km/h (1 Bft) S 180 0 min 5,8 C 7,6 C 17,2 km/h (3 Bft)
11.04.2023 07:00 8,8 C 11,7 C 8,1 C 8,6 C 8,2 C 0,0 C 81 % 76 % 1010,7 hPa 0,0 l/m 3,9 km/h (1 Bft) S 180 0 min 5,7 C 8,2 C 4,5 km/h (1 Bft)
11.04.2023 07:05 8,8 C 11,7 C 8,1 C 8,6 C 8,2 C 0,0 C 81 % 76 % 1010,7 hPa 0,0 l/m 3,9 km/h (1 Bft) S 180 0 min 5,7 C 8,2 C 4,5 km/h (1 Bft)
11.04.2023 07:10 8,9 C 11,6 C 8,1 C 8,8 C 8,5 C 0,0 C 81 % 75 % 1010,7 hPa 0,0 l/m 3,2 km/h (1 Bft) S 180 0 min 5,8 C 8,5 C 8,5 km/h (2 Bft)
11.04.2023 07:15 8,8 C 11,6 C 8,1 C 8,7 C 8,6 C 0,0 C 81 % 75 % 1010,7 hPa 0,0 l/m 3,5 km/h (1 Bft) S 180 0 min 5,7 C 8,6 C 8,0 km/h (2 Bft)
11.04.2023 07:20 8,8 C 11,6 C 8,1 C 8,8 C 8,8 C 0,0 C 81 % 74 % 1010,7 hPa 0,0 l/m 2,7 km/h (1 Bft) S-SO 157 0 min 5,7 C 8,8 C 0,0 km/h (0 Bft)
11.04.2023 07:25 8,9 C 11,6 C 8,2 C 8,9 C 8,8 C 0,0 C 81 % 73 % 1010,7 hPa 0,0 l/m 1,3 km/h (1 Bft) SO 135 0 min 5,8 C 8,8 C 0,0 km/h (0 Bft)
11.04.2023 07:30 8,8 C 11,6 C 8,2 C 8,9 C 8,9 C 0,1 C 81 % 71 % 1010,7 hPa 0,0 l/m 0,6 km/h (0 Bft) SW 225 0 min 5,7 C 8,9 C 0,0 km/h (0 Bft)
11.04.2023 07:35 8,8 C 11,6 C 8,3 C 8,9 C 8,9 C 0,1 C 81 % 71 % 1010,7 hPa 0,0 l/m 0,8 km/h (0 Bft) S 180 0 min 5,7 C 8,9 C 1,6 km/h (1 Bft)
11.04.2023 07:40 8,8 C 11,5 C 8,3 C 9,0 C 9,0 C 0,2 C 81 % 71 % 1010,7 hPa 0,0 l/m 0,8 km/h (0 Bft) N 360 0 min 5,7 C 9,0 C 0,0 km/h (0 Bft)
11.04.2023 07:45 8,8 C 11,5 C 8,2 C 9,0 C 9,0 C 0,2 C 81 % 71 % 1010,9 hPa 0,0 l/m 0,6 km/h (0 Bft) S-SO 157 0 min 5,7 C 9,0 C 2,1 km/h (1 Bft)
11.04.2023 07:50 8,8 C 11,5 C 8,2 C 9,1 C 9,1 C 0,3 C 81 % 71 % 1010,9 hPa 0,0 l/m 1,1 km/h (1 Bft) SW 225 0 min 5,7 C 9,1 C 0,0 km/h (0 Bft)
11.04.2023 07:55 8,8 C 11,5 C 8,2 C 9,0 C 9,0 C 0,2 C 81 % 71 % 1010,9 hPa 0,0 l/m 1,3 km/h (1 Bft) O-SO 112 0 min 5,7 C 9,0 C 0,0 km/h (0 Bft)
11.04.2023 08:00 8,7 C 11,5 C 8,2 C 8,7 C 8,6 C 0,0 C 81 % 73 % 1010,9 hPa 0,0 l/m 1,3 km/h (1 Bft) S 180 0 min 5,6 C 8,6 C 7,6 km/h (2 Bft)
11.04.2023 08:05 8,7 C 11,6 C 8,0 C 8,6 C 8,4 C 0,0 C 81 % 75 % 1011,2 hPa 0,0 l/m 2,3 km/h (1 Bft) SW 225 0 min 5,6 C 8,4 C 5,0 km/h (1 Bft)
11.04.2023 08:11 8,5 C 11,8 C 7,7 C 8,3 C 7,9 C 0,0 C 82 % 79 % 1011,2 hPa 0,0 l/m 2,3 km/h (1 Bft) N 0 0 min 5,6 C 7,9 C 2,7 km/h (1 Bft)
11.04.2023 08:27 8,3 C 11,8 C 7,7 C 8,1 C 7,7 C 0,0 C 83 % 88 % 1011,8 hPa 0,0 l/m 1,0 km/h (0 Bft) SW 225 0 min 5,6 C 7,7 C 2,3 km/h (1 Bft)
11.04.2023 08:30 8,3 C 11,8 C 7,7 C 8,1 C 7,7 C 0,0 C 83 % 88 % 1011,8 hPa 0,0 l/m 1,0 km/h (0 Bft) SW 225 0 min 5,6 C 7,7 C 2,3 km/h (1 Bft)
11.04.2023 08:35 8,3 C 11,8 C 7,8 C 8,1 C 7,8 C 0,0 C 84 % 88 % 1011,8 hPa 0,0 l/m 1,0 km/h (0 Bft) NW 315 0 min 5,8 C 7,8 C 3,2 km/h (1 Bft)
11.04.2023 08:40 8,2 C 11,8 C 7,9 C 8,1 C 7,9 C 0,0 C 84 % 89 % 1011,8 hPa 0,0 l/m 1,8 km/h (1 Bft) S 180 0 min 5,7 C 7,9 C 3,5 km/h (1 Bft)
11.04.2023 08:45 8,2 C 11,8 C 7,8 C 8,1 C 7,9 C 0,0 C 84 % 89 % 1011,4 hPa 0,0 l/m 2,1 km/h (1 Bft) O-SO 112 0 min 5,7 C 7,9 C 1,8 km/h (1 Bft)
11.04.2023 08:50 8,2 C 11,8 C 7,8 C 8,1 C 7,9 C 0,0 C 85 % 89 % 1011,4 hPa 0,0 l/m 1,6 km/h (1 Bft) O 90 0 min 5,8 C 7,9 C 2,3 km/h (1 Bft)
11.04.2023 08:55 8,3 C 11,8 C 7,8 C 8,2 C 7,9 C 0,0 C 85 % 89 % 1011,4 hPa 0,0 l/m 0,8 km/h (0 Bft) SW 225 0 min 5,9 C 7,9 C 6,6 km/h (2 Bft)
11.04.2023 09:00 8,3 C 11,8 C 7,8 C 8,2 C 7,9 C 0,0 C 85 % 89 % 1011,4 hPa 0,0 l/m 1,3 km/h (1 Bft) S 180 0 min 5,9 C 7,9 C 4,0 km/h (1 Bft)
11.04.2023 09:05 8,3 C 11,8 C 7,7 C 8,2 C 7,9 C 0,0 C 85 % 89 % 1011,9 hPa 0,0 l/m 1,1 km/h (1 Bft) N-NO 22 0 min 5,9 C 7,9 C 0,0 km/h (0 Bft)
11.04.2023 09:10 8,3 C 11,8 C 7,9 C 8,2 C 8,0 C 0,0 C 85 % 89 % 1011,9 hPa 0,0 l/m 0,5 km/h (0 Bft) S-SO 157 0 min 5,9 C 8,0 C 3,7 km/h (1 Bft)
11.04.2023 09:15 8,3 C 11,8 C 8,1 C 8,2 C 8,1 C 0,0 C 85 % 89 % 1011,9 hPa 0,0 l/m 0,8 km/h (0 Bft) S 180 0 min 5,9 C 8,1 C 5,3 km/h (1 Bft)
11.04.2023 09:20 8,3 C 11,8 C 8,0 C 8,3 C 8,2 C 0,0 C 86 % 89 % 1011,9 hPa 0,0 l/m 1,4 km/h (1 Bft) S-SO 157 0 min 6,1 C 8,2 C 6,0 km/h (2 Bft)
11.04.2023 09:25 8,3 C 11,8 C 7,9 C 8,2 C 8,1 C 0,0 C 86 % 89 % 1011,4 hPa 0,0 l/m 1,6 km/h (1 Bft) O-SO 112 0 min 6,1 C 8,1 C 4,3 km/h (1 Bft)
11.04.2023 09:30 8,3 C 11,7 C 8,0 C 8,3 C 8,2 C 0,0 C 86 % 89 % 1011,4 hPa 0,0 l/m 1,4 km/h (1 Bft) S 180 0 min 6,1 C 8,2 C 0,0 km/h (0 Bft)
11.04.2023 09:35 8,4 C 11,7 C 8,1 C 8,3 C 8,2 C 0,0 C 86 % 89 % 1011,4 hPa 0,0 l/m 0,8 km/h (0 Bft) SO 135 0 min 6,2 C 8,2 C 4,8 km/h (1 Bft)
11.04.2023 09:40 8,5 C 11,7 C 8,1 C 8,4 C 8,2 C 0,0 C 86 % 89 % 1011,4 hPa 0,0 l/m 0,3 km/h (0 Bft) S 180 0 min 6,3 C 8,2 C 0,0 km/h (0 Bft)
11.04.2023 09:45 8,4 C 11,7 C 8,0 C 8,3 C 8,2 C 0,0 C 86 % 89 % 1011,4 hPa 0,0 l/m 0,3 km/h (0 Bft) S 180 0 min 6,2 C 8,2 C 0,0 km/h (0 Bft)
11.04.2023 09:50 8,4 C 11,7 C 7,9 C 8,3 C 8,0 C 0,0 C 85 % 89 % 1011,4 hPa 0,0 l/m 0,5 km/h (0 Bft) S 180 0 min 6,0 C 8,0 C 0,0 km/h (0 Bft)
11.04.2023 09:55 8,5 C 11,7 C 7,9 C 8,3 C 7,9 C 0,0 C 85 % 89 % 1011,4 hPa 0,0 l/m 0,3 km/h (0 Bft) O 90 0 min 6,1 C 7,9 C 0,0 km/h (0 Bft)
11.04.2023 10:00 8,4 C 11,6 C 7,9 C 8,2 C 7,9 C 0,0 C 85 % 89 % 1011,4 hPa 0,7 l/m 0,3 km/h (0 Bft) S 180 0 min 6,0 C 7,9 C 4,3 km/h (1 Bft)
11.04.2023 10:05 8,4 C 11,6 C 7,9 C 8,2 C 7,9 C 0,0 C 85 % 89 % 1011,4 hPa 0,0 l/m 0,6 km/h (0 Bft) O 90 0 min 6,0 C 7,9 C 0,0 km/h (0 Bft)
11.04.2023 10:10 8,4 C 11,5 C 8,0 C 8,2 C 7,9 C 0,0 C 85 % 89 % 1011,4 hPa 0,0 l/m 0,8 km/h (0 Bft) S 180 0 min 6,0 C 7,9 C 6,3 km/h (2 Bft)
11.04.2023 10:15 8,4 C 11,5 C 8,2 C 8,3 C 8,0 C 0,0 C 85 % 89 % 1011,4 hPa 0,0 l/m 0,8 km/h (0 Bft) SW 225 0 min 6,0 C 8,0 C 4,5 km/h (1 Bft)
11.04.2023 10:20 8,7 C 11,5 C 8,4 C 8,5 C 8,2 C 0,0 C 84 % 80 % 1011,4 hPa 0,0 l/m 1,9 km/h (1 Bft) SW 225 0 min 6,2 C 8,2 C 6,4 km/h (2 Bft)
11.04.2023 10:25 8,7 C 11,5 C 8,4 C 8,6 C 8,5 C 0,0 C 84 % 80 % 1011,9 hPa 0,0 l/m 2,9 km/h (1 Bft) SW 225 0 min 6,2 C 8,5 C 4,7 km/h (1 Bft)
11.04.2023 10:30 8,8 C 11,4 C 8,7 C 9,2 C 9,2 C 0,4 C 84 % 79 % 1011,9 hPa 0,0 l/m 3,2 km/h (1 Bft) O-SO 112 0 min 6,2 C 9,2 C 4,5 km/h (1 Bft)
11.04.2023 10:35 8,9 C 11,4 C 8,7 C 9,7 C 9,7 C 0,8 C 83 % 78 % 1011,9 hPa 0,0 l/m 2,7 km/h (1 Bft) W-SW 247 0 min 6,2 C 9,7 C 2,7 km/h (1 Bft)
11.04.2023 10:40 9,1 C 11,4 C 8,8 C 10,0 C 10,0 C 0,9 C 83 % 76 % 1011,9 hPa 0,0 l/m 2,9 km/h (1 Bft) SW 225 0 min 6,4 C 10,0 C 9,0 km/h (2 Bft)
11.04.2023 10:45 9,0 C 11,4 C 8,9 C 10,3 C 10,3 C 1,3 C 82 % 76 % 1012,2 hPa 0,0 l/m 3,4 km/h (1 Bft) SW 225 0 min 6,1 C 10,3 C 7,4 km/h (2 Bft)
11.04.2023 10:50 9,2 C 11,4 C 9,2 C 10,7 C 10,7 C 1,5 C 82 % 74 % 1012,2 hPa 0,0 l/m 3,9 km/h (1 Bft) SW 225 0 min 6,3 C 10,7 C 7,7 km/h (2 Bft)
11.04.2023 10:55 9,3 C 11,4 C 9,5 C 11,0 C 11,0 C 1,7 C 81 % 74 % 1012,2 hPa 0,0 l/m 3,5 km/h (1 Bft) S-SW 202 0 min 6,2 C 11,0 C 4,8 km/h (1 Bft)
11.04.2023 11:00 9,5 C 11,4 C 9,9 C 11,7 C 11,7 C 2,2 C 82 % 74 % 1012,2 hPa 0,0 l/m 3,9 km/h (1 Bft) S 180 0 min 6,6 C 11,7 C 2,9 km/h (1 Bft)
11.04.2023 11:05 9,6 C 11,4 C 10,0 C 12,0 C 12,0 C 2,4 C 81 % 72 % 1011,8 hPa 0,0 l/m 4,0 km/h (1 Bft) SW 225 0 min 6,5 C 12,0 C 9,0 km/h (2 Bft)
11.04.2023 11:10 9,7 C 11,4 C 10,3 C 12,3 C 12,3 C 2,6 C 80 % 73 % 1011,8 hPa 0,0 l/m 5,1 km/h (1 Bft) SW 225 0 min 6,4 C 12,3 C 8,4 km/h (2 Bft)
11.04.2023 11:15 9,9 C 11,4 C 10,4 C 12,4 C 12,4 C 2,5 C 80 % 69 % 1011,8 hPa 0,0 l/m 6,3 km/h (2 Bft) SW 225 0 min 6,6 C 12,4 C 8,7 km/h (2 Bft)
11.04.2023 11:20 9,9 C 11,4 C 10,6 C 12,2 C 12,2 C 2,3 C 79 % 71 % 1011,8 hPa 0,0 l/m 5,8 km/h (2 Bft) SW 225 0 min 6,4 C 12,2 C 5,0 km/h (1 Bft)
11.04.2023 11:25 10,1 C 11,4 C 11,2 C 12,2 C 12,2 C 2,1 C 79 % 71 % 1011,4 hPa 0,0 l/m 6,4 km/h (2 Bft) S-SW 202 0 min 6,6 C 12,2 C 4,3 km/h (1 Bft)
11.04.2023 11:30 10,3 C 11,4 C 12,0 C 12,7 C 12,7 C 2,4 C 79 % 65 % 1011,4 hPa 0,0 l/m 5,8 km/h (2 Bft) SO 135 0 min 6,8 C 12,7 C 7,1 km/h (2 Bft)
11.04.2023 11:35 10,5 C 11,4 C 13,2 C 13,2 C 13,2 C 2,7 C 79 % 70 % 1011,4 hPa 0,0 l/m 4,8 km/h (1 Bft) O-SO 112 0 min 7,0 C 13,2 C 5,1 km/h (1 Bft)
11.04.2023 11:40 10,8 C 11,4 C 14,3 C 13,8 C 13,8 C 3,0 C 78 % 66 % 1011,4 hPa 0,0 l/m 4,8 km/h (1 Bft) W-SW 247 0 min 7,1 C 13,8 C 12,1 km/h (2 Bft)
11.04.2023 11:45 10,9 C 11,4 C 13,3 C 14,3 C 14,3 C 3,4 C 76 % 61 % 1011,4 hPa 0,0 l/m 5,0 km/h (1 Bft) S-SW 202 5 min 6,8 C 14,3 C 5,1 km/h (1 Bft)
11.04.2023 11:50 10,7 C 11,4 C 11,5 C 13,3 C 13,3 C 2,6 C 75 % 61 % 1011,4 hPa 0,0 l/m 5,3 km/h (1 Bft) S-SW 202 0 min 6,5 C 13,3 C 7,9 km/h (2 Bft)
11.04.2023 11:55 10,5 C 11,4 C 10,3 C 11,9 C 11,9 C 1,4 C 75 % 65 % 1011,4 hPa 0,0 l/m 5,6 km/h (1 Bft) SW 225 0 min 6,3 C 11,9 C 3,2 km/h (1 Bft)
11.04.2023 12:00 9,6 C 11,5 C 8,8 C 9,5 C 9,3 C 0,0 C 74 % 71 % 1011,4 hPa 0,0 l/m 4,8 km/h (1 Bft) W-SW 247 0 min 5,2 C 9,0 C 7,9 km/h (2 Bft)
11.04.2023 12:05 9,2 C 11,5 C 8,8 C 9,0 C 8,6 C 0,0 C 75 % 73 % 1011,4 hPa 0,0 l/m 2,7 km/h (1 Bft) SW 225 0 min 5,0 C 8,6 C 5,5 km/h (1 Bft)
11.04.2023 12:10 8,9 C 11,7 C 7,9 C 8,6 C 8,0 C 0,0 C 77 % 75 % 1011,4 hPa 0,7 l/m 2,9 km/h (1 Bft) SW 225 0 min 5,1 C 8,0 C 0,0 km/h (0 Bft)
11.04.2023 12:15 8,7 C 11,7 C 8,9 C 8,4 C 7,8 C 0,0 C 77 % 77 % 1011,4 hPa 0,0 l/m 2,9 km/h (1 Bft) S-SW 202 0 min 4,9 C 7,8 C 4,3 km/h (1 Bft)
11.04.2023 12:20 8,7 C 11,6 C 10,8 C 9,2 C 9,2 C 0,5 C 80 % 80 % 1011,4 hPa 0,0 l/m 2,3 km/h (1 Bft) SW 225 0 min 5,4 C 9,2 C 3,4 km/h (1 Bft)
11.04.2023 12:25 8,8 C 11,6 C 11,5 C 10,4 C 10,4 C 1,6 C 81 % 80 % 1011,3 hPa 0,0 l/m 1,9 km/h (1 Bft) S 180 0 min 5,7 C 10,4 C 6,4 km/h (2 Bft)
11.04.2023 12:30 9,3 C 11,6 C 12,2 C 12,0 C 12,0 C 2,7 C 81 % 80 % 1011,3 hPa 0,0 l/m 3,2 km/h (1 Bft) S-SO 157 0 min 6,2 C 12,0 C 7,1 km/h (2 Bft)
11.04.2023 12:35 9,7 C 11,5 C 12,4 C 12,7 C 12,7 C 3,0 C 82 % 78 % 1011,3 hPa 0,0 l/m 5,3 km/h (1 Bft) S-SO 157 0 min 6,8 C 12,7 C 15,1 km/h (3 Bft)
11.04.2023 12:40 10,3 C 11,5 C 12,1 C 13,6 C 13,6 C 3,3 C 80 % 74 % 1011,3 hPa 0,0 l/m 7,1 km/h (2 Bft) S-SW 202 5 min 7,0 C 13,6 C 8,0 km/h (2 Bft)
11.04.2023 12:45 10,7 C 11,4 C 11,6 C 13,8 C 13,8 C 3,1 C 79 % 73 % 1011,2 hPa 0,0 l/m 5,8 km/h (2 Bft) S 180 0 min 7,2 C 13,8 C 5,0 km/h (1 Bft)
11.04.2023 12:50 11,3 C 11,4 C 13,2 C 16,0 C 16,0 C 4,7 C 78 % 74 % 1011,2 hPa 0,0 l/m 3,9 km/h (1 Bft) SW 225 5 min 7,6 C 16,0 C 19,2 km/h (3 Bft)
11.04.2023 12:55 11,3 C 11,4 C 10,8 C 15,7 C 15,7 C 4,4 C 71 % 65 % 1011,2 hPa 0,0 l/m 4,2 km/h (1 Bft) S 180 5 min 6,2 C 15,7 C 12,1 km/h (2 Bft)
11.04.2023 13:00 10,1 C 11,4 C 9,7 C 13,0 C 13,0 C 2,9 C 69 % 65 % 1011,2 hPa 0,0 l/m 5,5 km/h (1 Bft) W 270 0 min 4,7 C 13,0 C 4,5 km/h (1 Bft)
11.04.2023 13:05 9,8 C 11,4 C 9,8 C 12,7 C 12,7 C 2,9 C 70 % 65 % 1012,2 hPa 0,0 l/m 3,7 km/h (1 Bft) N-NW 337 0 min 4,6 C 12,7 C 3,7 km/h (1 Bft)
11.04.2023 13:10 9,7 C 11,4 C 9,5 C 11,1 C 11,1 C 1,4 C 70 % 65 % 1012,2 hPa 0,0 l/m 1,9 km/h (1 Bft) S 180 0 min 4,5 C 11,1 C 1,6 km/h (1 Bft)
11.04.2023 13:15 9,2 C 11,4 C 8,5 C 9,7 C 9,7 C 0,5 C 72 % 71 % 1012,2 hPa 0,0 l/m 2,1 km/h (1 Bft) O-SO 112 0 min 4,4 C 9,7 C 0,0 km/h (0 Bft)
11.04.2023 13:20 8,9 C 11,4 C 8,7 C 9,1 C 9,1 C 0,2 C 74 % 73 % 1012,2 hPa 0,0 l/m 3,5 km/h (1 Bft) SW 225 0 min 4,5 C 9,1 C 11,3 km/h (2 Bft)
11.04.2023 13:25 8,8 C 11,4 C 8,6 C 8,7 C 8,5 C 0,0 C 75 % 75 % 1012,6 hPa 0,0 l/m 5,0 km/h (1 Bft) S 180 0 min 4,6 C 8,1 C 7,2 km/h (2 Bft)
11.04.2023 13:30 8,5 C 11,4 C 7,6 C 7,9 C 6,8 C 0,0 C 76 % 74 % 1012,6 hPa 0,0 l/m 6,8 km/h (2 Bft) SW 225 0 min 4,5 C 5,6 C 5,6 km/h (1 Bft)
11.04.2023 13:35 8,3 C 11,4 C 7,4 C 7,7 C 6,4 C 0,0 C 76 % 75 % 1012,6 hPa 0,0 l/m 6,0 km/h (2 Bft) SW 225 0 min 4,3 C 5,3 C 6,0 km/h (2 Bft)
11.04.2023 13:40 8,0 C 11,4 C 7,4 C 7,6 C 6,7 C 0,0 C 76 % 75 % 1012,6 hPa 0,0 l/m 4,3 km/h (1 Bft) S 180 0 min 4,0 C 6,7 C 10,8 km/h (2 Bft)
11.04.2023 13:45 8,1 C 11,4 C 7,9 C 7,7 C 6,9 C 0,0 C 76 % 76 % 1012,6 hPa 0,0 l/m 4,2 km/h (1 Bft) W-SW 247 0 min 4,1 C 6,9 C 6,0 km/h (2 Bft)
11.04.2023 13:50 8,3 C 11,4 C 9,1 C 8,4 C 8,4 C 0,1 C 76 % 77 % 1012,6 hPa 0,0 l/m 4,7 km/h (1 Bft) S 180 0 min 4,3 C 8,0 C 6,8 km/h (2 Bft)
11.04.2023 13:55 8,6 C 11,4 C 9,8 C 10,4 C 10,4 C 1,8 C 76 % 78 % 1012,6 hPa 0,0 l/m 3,5 km/h (1 Bft) S-SW 202 0 min 4,6 C 10,4 C 4,0 km/h (1 Bft)
11.04.2023 14:00 9,1 C 11,4 C 9,4 C 11,0 C 11,0 C 1,9 C 74 % 75 % 1012,6 hPa 0,0 l/m 4,0 km/h (1 Bft) S-SW 202 0 min 4,7 C 11,0 C 7,7 km/h (2 Bft)
11.04.2023 14:05 9,2 C 11,3 C 9,6 C 11,1 C 11,1 C 1,9 C 73 % 75 % 1013,0 hPa 0,0 l/m 5,1 km/h (1 Bft) W-SW 247 0 min 4,6 C 11,1 C 4,2 km/h (1 Bft)
11.04.2023 14:10 9,4 C 11,3 C 9,7 C 11,9 C 11,9 C 2,5 C 73 % 73 % 1013,0 hPa 0,0 l/m 4,7 km/h (1 Bft) W-SW 247 0 min 4,8 C 11,9 C 4,7 km/h (1 Bft)
11.04.2023 14:15 9,4 C 11,4 C 10,0 C 12,2 C 12,2 C 2,8 C 73 % 74 % 1013,0 hPa 0,0 l/m 3,5 km/h (1 Bft) SW 225 0 min 4,8 C 12,2 C 6,1 km/h (2 Bft)
11.04.2023 14:20 9,7 C 11,4 C 10,2 C 13,0 C 13,0 C 3,3 C 74 % 72 % 1013,0 hPa 0,0 l/m 2,9 km/h (1 Bft) W-SW 247 5 min 5,3 C 13,0 C 5,1 km/h (1 Bft)
11.04.2023 14:30 10,2 C 11,4 C 10,6 C 13,7 C 13,7 C 3,5 C 73 % 69 % 1013,2 hPa 0,0 l/m 4,7 km/h (1 Bft) W-SW 247 10 min 5,6 C 13,7 C 16,1 km/h (3 Bft)
11.04.2023 14:35 10,2 C 11,4 C 10,6 C 13,2 C 13,2 C 3,0 C 72 % 67 % 1013,2 hPa 0,0 l/m 6,6 km/h (2 Bft) SW 225 0 min 5,4 C 13,2 C 11,9 km/h (2 Bft)
11.04.2023 14:40 10,3 C 11,4 C 10,8 C 13,1 C 12,7 C 2,8 C 69 % 62 % 1013,2 hPa 0,0 l/m 10,1 km/h (2 Bft) SW 225 0 min 4,9 C 12,7 C 21,6 km/h (4 Bft)
11.04.2023 14:45 10,5 C 11,4 C 11,0 C 13,3 C 13,2 C 2,8 C 70 % 62 % 1012,9 hPa 0,0 l/m 10,3 km/h (2 Bft) S-SW 202 0 min 5,3 C 13,2 C 9,8 km/h (2 Bft)
11.04.2023 14:50 10,3 C 11,3 C 10,0 C 12,8 C 12,2 C 2,5 C 67 % 60 % 1012,9 hPa 0,0 l/m 9,8 km/h (2 Bft) SW 225 0 min 4,4 C 12,2 C 14,3 km/h (3 Bft)
11.04.2023 14:55 10,3 C 11,3 C 10,1 C 12,1 C 11,7 C 1,8 C 68 % 61 % 1012,9 hPa 0,0 l/m 8,9 km/h (2 Bft) SW 225 0 min 4,7 C 11,7 C 13,0 km/h (3 Bft)
11.04.2023 15:00 10,3 C 11,4 C 10,4 C 11,9 C 11,9 C 1,6 C 68 % 62 % 1012,9 hPa 0,0 l/m 7,1 km/h (2 Bft) SW 225 0 min 4,7 C 11,9 C 13,4 km/h (3 Bft)
11.04.2023 15:05 10,3 C 11,4 C 10,4 C 12,4 C 12,4 C 2,1 C 68 % 61 % 1013,2 hPa 0,0 l/m 6,8 km/h (2 Bft) SW 225 0 min 4,7 C 12,4 C 10,9 km/h (2 Bft)
11.04.2023 15:10 10,3 C 11,4 C 10,3 C 12,7 C 12,7 C 2,4 C 68 % 61 % 1013,2 hPa 0,0 l/m 5,8 km/h (2 Bft) SW 225 0 min 4,7 C 12,7 C 7,7 km/h (2 Bft)
11.04.2023 15:15 10,4 C 11,4 C 10,6 C 13,3 C 13,3 C 2,9 C 68 % 64 % 1013,2 hPa 0,0 l/m 5,6 km/h (1 Bft) S-SW 202 0 min 4,8 C 13,3 C 4,2 km/h (1 Bft)
11.04.2023 15:20 11,0 C 11,4 C 11,0 C 15,1 C 15,1 C 4,1 C 67 % 63 % 1013,2 hPa 0,0 l/m 5,1 km/h (1 Bft) S-SW 202 5 min 5,1 C 15,1 C 11,7 km/h (2 Bft)
11.04.2023 15:25 11,1 C 11,4 C 10,8 C 15,4 C 15,4 C 4,3 C 64 % 58 % 1013,1 hPa 0,0 l/m 6,8 km/h (2 Bft) SW 225 5 min 4,6 C 15,4 C 16,3 km/h (3 Bft)
11.04.2023 15:30 11,4 C 11,4 C 11,1 C 15,4 C 15,4 C 4,0 C 64 % 59 % 1013,1 hPa 0,0 l/m 8,0 km/h (2 Bft) W-SW 247 5 min 4,8 C 15,4 C 10,5 km/h (2 Bft)
11.04.2023 15:35 11,5 C 11,4 C 11,3 C 15,9 C 15,9 C 4,4 C 64 % 62 % 1013,1 hPa 0,0 l/m 6,0 km/h (2 Bft) SW 225 5 min 4,9 C 15,9 C 4,8 km/h (1 Bft)
11.04.2023 15:40 11,8 C 11,4 C 11,7 C 16,1 C 16,1 C 4,3 C 62 % 54 % 1013,1 hPa 0,0 l/m 6,4 km/h (2 Bft) S 180 5 min 4,8 C 16,1 C 8,9 km/h (2 Bft)
11.04.2023 15:45 11,9 C 11,3 C 11,8 C 16,6 C 16,6 C 4,7 C 61 % 50 % 1013,1 hPa 0,0 l/m 7,7 km/h (2 Bft) S-SW 202 5 min 4,6 C 16,6 C 13,7 km/h (3 Bft)
11.04.2023 15:50 12,0 C 11,3 C 11,8 C 16,7 C 16,7 C 4,7 C 60 % 51 % 1013,1 hPa 0,0 l/m 8,4 km/h (2 Bft) SW 225 5 min 4,5 C 16,7 C 15,6 km/h (3 Bft)
11.04.2023 15:55 12,0 C 11,3 C 11,5 C 16,0 C 15,6 C 4,0 C 59 % 51 % 1013,1 hPa 0,0 l/m 8,2 km/h (2 Bft) W 270 5 min 4,2 C 15,6 C 3,9 km/h (1 Bft)
11.04.2023 16:00 12,0 C 11,4 C 11,9 C 15,6 C 15,5 C 3,6 C 60 % 52 % 1013,1 hPa 0,0 l/m 8,5 km/h (2 Bft) NO 45 5 min 4,5 C 15,5 C 7,7 km/h (2 Bft)
11.04.2023 16:05 12,0 C 11,4 C 11,4 C 15,3 C 15,1 C 3,3 C 59 % 48 % 1013,1 hPa 0,0 l/m 7,9 km/h (2 Bft) W 270 5 min 4,2 C 15,1 C 14,3 km/h (3 Bft)
11.04.2023 16:10 11,5 C 11,4 C 10,6 C 13,2 C 13,2 C 1,7 C 59 % 50 % 1013,1 hPa 0,0 l/m 6,8 km/h (2 Bft) W-SW 247 0 min 3,8 C 13,2 C 10,8 km/h (2 Bft)
11.04.2023 16:15 11,5 C 11,4 C 10,5 C 12,4 C 12,4 C 0,9 C 61 % 55 % 1013,1 hPa 0,0 l/m 5,6 km/h (1 Bft) W-SW 247 0 min 4,2 C 12,4 C 3,5 km/h (1 Bft)
11.04.2023 16:20 11,3 C 11,4 C 10,8 C 12,3 C 12,3 C 1,0 C 62 % 56 % 1013,1 hPa 0,0 l/m 3,1 km/h (1 Bft) S-SW 202 0 min 4,3 C 12,3 C 6,0 km/h (2 Bft)
11.04.2023 16:25 11,4 C 11,4 C 11,0 C 12,8 C 12,8 C 1,4 C 63 % 55 % 1013,3 hPa 0,0 l/m 2,9 km/h (1 Bft) W-SW 247 0 min 4,6 C 12,8 C 5,1 km/h (1 Bft)
11.04.2023 16:30 11,3 C 11,4 C 10,8 C 13,0 C 13,0 C 1,7 C 63 % 54 % 1013,3 hPa 0,0 l/m 5,1 km/h (1 Bft) SW 225 0 min 4,5 C 13,0 C 7,4 km/h (2 Bft)
11.04.2023 16:35 11,3 C 11,4 C 10,8 C 12,8 C 12,8 C 1,5 C 63 % 54 % 1013,3 hPa 0,0 l/m 5,3 km/h (1 Bft) S 180 0 min 4,5 C 12,8 C 6,6 km/h (2 Bft)
11.04.2023 16:40 11,3 C 11,4 C 11,0 C 12,6 C 12,6 C 1,3 C 60 % 50 % 1013,3 hPa 0,0 l/m 6,0 km/h (2 Bft) SW 225 0 min 3,8 C 12,6 C 6,6 km/h (2 Bft)
11.04.2023 16:45 11,3 C 11,4 C 10,8 C 12,3 C 12,3 C 1,0 C 58 % 47 % 1013,2 hPa 0,0 l/m 6,8 km/h (2 Bft) SW 225 0 min 3,3 C 12,3 C 10,9 km/h (2 Bft)
11.04.2023 16:50 11,3 C 11,4 C 10,7 C 12,2 C 12,2 C 0,9 C 57 % 46 % 1013,2 hPa 0,0 l/m 5,8 km/h (2 Bft) W-SW 247 0 min 3,1 C 12,2 C 6,6 km/h (2 Bft)
11.04.2023 16:55 11,2 C 11,4 C 10,5 C 12,3 C 12,3 C 1,1 C 57 % 47 % 1013,2 hPa 0,0 l/m 5,1 km/h (1 Bft) W-SW 247 0 min 3,0 C 12,3 C 8,4 km/h (2 Bft)
11.04.2023 17:00 11,2 C 11,4 C 10,6 C 12,3 C 12,3 C 1,1 C 57 % 45 % 1013,2 hPa 0,0 l/m 4,7 km/h (1 Bft) W-SW 247 0 min 3,0 C 12,3 C 7,7 km/h (2 Bft)
11.04.2023 17:05 11,2 C 11,4 C 11,0 C 12,8 C 12,8 C 1,6 C 58 % 46 % 1013,6 hPa 0,0 l/m 4,2 km/h (1 Bft) SW 225 0 min 3,2 C 12,8 C 2,4 km/h (1 Bft)
11.04.2023 17:10 11,6 C 11,4 C 11,2 C 13,7 C 13,7 C 2,1 C 58 % 46 % 1013,6 hPa 0,0 l/m 3,4 km/h (1 Bft) W-SW 247 0 min 3,6 C 13,7 C 4,7 km/h (1 Bft)
11.04.2023 17:15 11,6 C 11,4 C 10,8 C 13,4 C 13,4 C 1,8 C 58 % 46 % 1013,6 hPa 0,0 l/m 2,7 km/h (1 Bft) S-SW 202 0 min 3,6 C 13,4 C 6,9 km/h (2 Bft)
11.04.2023 17:20 11,4 C 11,4 C 10,6 C 12,6 C 12,6 C 1,2 C 58 % 46 % 1013,6 hPa 0,0 l/m 4,3 km/h (1 Bft) S 180 0 min 3,4 C 12,6 C 6,8 km/h (2 Bft)
11.04.2023 17:25 11,3 C 11,4 C 10,6 C 12,1 C 12,1 C 0,8 C 56 % 43 % 1013,6 hPa 0,0 l/m 5,8 km/h (2 Bft) O-NO 67 0 min 2,8 C 12,1 C 0,0 km/h (0 Bft)
11.04.2023 17:30 11,5 C 11,4 C 11,8 C 13,5 C 13,5 C 2,0 C 54 % 45 % 1013,6 hPa 0,0 l/m 3,7 km/h (1 Bft) S-SW 202 0 min 2,5 C 13,5 C 0,0 km/h (0 Bft)
11.04.2023 17:35 12,0 C 11,4 C 11,8 C 14,7 C 14,7 C 2,7 C 53 % 43 % 1013,6 hPa 0,0 l/m 1,4 km/h (1 Bft) S-SW 202 0 min 2,7 C 14,7 C 2,6 km/h (1 Bft)
11.04.2023 17:40 12,3 C 11,4 C 11,6 C 14,7 C 14,7 C 2,4 C 54 % 43 % 1013,6 hPa 0,0 l/m 1,3 km/h (1 Bft) W 270 0 min 3,3 C 14,7 C 0,0 km/h (0 Bft)
11.04.2023 17:45 12,4 C 11,4 C 11,5 C 14,8 C 14,8 C 2,4 C 54 % 43 % 1013,5 hPa 0,0 l/m 0,6 km/h (0 Bft) S-SW 202 0 min 3,4 C 14,8 C 0,0 km/h (0 Bft)
11.04.2023 17:50 12,2 C 11,4 C 11,4 C 14,9 C 14,9 C 2,7 C 52 % 41 % 1013,5 hPa 0,0 l/m 2,9 km/h (1 Bft) SW 225 0 min 2,6 C 14,9 C 5,5 km/h (1 Bft)
11.04.2023 17:55 12,3 C 11,4 C 11,3 C 14,9 C 14,9 C 2,6 C 53 % 40 % 1013,5 hPa 0,0 l/m 3,4 km/h (1 Bft) S-SW 202 0 min 3,0 C 14,9 C 3,5 km/h (1 Bft)
11.04.2023 18:00 12,4 C 11,4 C 11,1 C 15,0 C 15,0 C 2,6 C 52 % 41 % 1013,5 hPa 0,0 l/m 1,8 km/h (1 Bft) W-SW 247 0 min 2,8 C 15,0 C 3,1 km/h (1 Bft)
11.04.2023 18:05 12,7 C 11,4 C 11,1 C 15,0 C 15,0 C 2,3 C 52 % 42 % 1013,5 hPa 0,0 l/m 2,1 km/h (1 Bft) S-SW 202 0 min 3,1 C 15,0 C 5,5 km/h (1 Bft)
11.04.2023 18:10 12,7 C 11,4 C 10,8 C 14,5 C 14,5 C 1,8 C 52 % 42 % 1013,5 hPa 0,0 l/m 1,8 km/h (1 Bft) S 180 0 min 3,1 C 14,5 C 0,0 km/h (0 Bft)
11.04.2023 18:15 12,5 C 11,4 C 10,6 C 13,9 C 13,9 C 1,4 C 51 % 42 % 1013,5 hPa 0,0 l/m 2,3 km/h (1 Bft) S 180 0 min 2,6 C 13,9 C 12,7 km/h (3 Bft)
11.04.2023 18:21 12,0 C 11,4 C 10,3 C 13,0 C 13,0 C 1,0 C 52 % 41 % 1013,4 hPa 0,0 l/m 2,4 km/h (1 Bft) S 180 0 min 2,5 C 13,0 C 23,5 km/h (4 Bft)
11.04.2023 18:25 12,0 C 11,4 C 10,3 C 13,0 C 13,0 C 1,0 C 52 % 41 % 1013,4 hPa 0,0 l/m 2,4 km/h (1 Bft) S 180 0 min 2,5 C 13,0 C 2,4 km/h (1 Bft)
11.04.2023 18:32 11,7 C 11,4 C 10,0 C 12,0 C 12,0 C 0,3 C 53 % 42 % 1013,4 hPa 0,0 l/m 0,8 km/h (0 Bft) S-SW 202 0 min 2,4 C 12,0 C 0,0 km/h (0 Bft)
11.04.2023 18:33 11,7 C 11,4 C 10,0 C 12,0 C 12,0 C 0,3 C 53 % 42 % 1013,4 hPa 0,0 l/m 0,8 km/h (0 Bft) S-SW 202 0 min 2,4 C 12,0 C 0,0 km/h (0 Bft)
11.04.2023 18:34 11,7 C 11,4 C 10,0 C 12,0 C 12,0 C 0,3 C 53 % 42 % 1013,4 hPa 0,0 l/m 0,8 km/h (0 Bft) S-SW 202 0 min 2,4 C 12,0 C 0,0 km/h (0 Bft)
11.04.2023 18:35 11,5 C 11,4 C 9,7 C 11,4 C 11,3 C 0,0 C 53 % 42 % 1013,4 hPa 0,0 l/m 0,5 km/h (0 Bft) SW 225 0 min 2,3 C 11,3 C 0,0 km/h (0 Bft)
11.04.2023 18:36 11,5 C 11,4 C 9,7 C 11,4 C 11,3 C 0,0 C 53 % 42 % 1013,4 hPa 0,0 l/m 0,5 km/h (0 Bft) SW 225 0 min 2,3 C 11,3 C 0,0 km/h (0 Bft)
11.04.2023 18:38 11,5 C 11,4 C 9,7 C 11,4 C 11,3 C 0,0 C 53 % 42 % 1013,4 hPa 0,0 l/m 0,5 km/h (0 Bft) SW 225 0 min 2,3 C 11,3 C 0,0 km/h (0 Bft)
11.04.2023 18:40 11,5 C 11,4 C 9,7 C 11,4 C 11,3 C 0,0 C 53 % 42 % 1013,4 hPa 0,0 l/m 0,5 km/h (0 Bft) SW 225 0 min 2,3 C 11,3 C 0,0 km/h (0 Bft)
11.04.2023 18:45 11,3 C 11,4 C 9,5 C 11,2 C 10,9 C 0,0 C 54 % 43 % 1013,4 hPa 0,0 l/m 0,3 km/h (0 Bft) W 270 0 min 2,3 C 10,9 C 0,0 km/h (0 Bft)
11.04.2023 18:50 11,1 C 11,4 C 9,4 C 10,9 C 10,5 C 0,0 C 54 % 43 % 1013,4 hPa 0,0 l/m 0,3 km/h (0 Bft) W-SW 247 0 min 2,2 C 10,5 C 2,4 km/h (1 Bft)
11.04.2023 18:55 11,1 C 11,4 C 9,6 C 10,9 C 10,5 C 0,0 C 55 % 43 % 1013,4 hPa 0,0 l/m 0,5 km/h (0 Bft) SW 225 0 min 2,4 C 10,5 C 2,1 km/h (1 Bft)
11.04.2023 19:00 10,9 C 11,4 C 9,5 C 10,7 C 10,4 C 0,0 C 55 % 44 % 1013,4 hPa 0,0 l/m 0,6 km/h (0 Bft) W-SW 247 0 min 2,2 C 10,4 C 3,4 km/h (1 Bft)
11.04.2023 19:05 10,9 C 11,4 C 9,5 C 10,7 C 10,4 C 0,0 C 56 % 44 % 1014,9 hPa 0,0 l/m 1,3 km/h (1 Bft) S-SW 202 0 min 2,5 C 10,4 C 3,4 km/h (1 Bft)
11.04.2023 19:10 10,6 C 11,4 C 9,5 C 10,5 C 10,4 C 0,0 C 56 % 43 % 1014,9 hPa 0,0 l/m 2,9 km/h (1 Bft) SW 225 0 min 2,2 C 10,4 C 6,8 km/h (2 Bft)
11.04.2023 19:15 10,5 C 11,4 C 9,3 C 10,4 C 10,3 C 0,0 C 56 % 43 % 1014,9 hPa 0,0 l/m 2,4 km/h (1 Bft) O-SO 112 0 min 2,1 C 10,3 C 0,0 km/h (0 Bft)
11.04.2023 19:20 10,1 C 11,4 C 9,0 C 10,1 C 10,0 C 0,0 C 57 % 42 % 1014,9 hPa 0,0 l/m 1,4 km/h (1 Bft) W-SW 247 0 min 2,0 C 10,0 C 0,0 km/h (0 Bft)
11.04.2023 19:25 10,0 C 11,4 C 9,0 C 10,0 C 9,9 C 0,0 C 57 % 43 % 1014,9 hPa 0,0 l/m 1,8 km/h (1 Bft) NW 315 0 min 1,9 C 9,9 C 1,8 km/h (1 Bft)
11.04.2023 19:30 10,0 C 11,4 C 9,0 C 10,4 C 10,4 C 0,4 C 56 % 41 % 1014,9 hPa 0,0 l/m 2,6 km/h (1 Bft) W-SW 247 0 min 1,6 C 10,4 C 2,9 km/h (1 Bft)
11.04.2023 19:35 10,0 C 11,4 C 8,9 C 10,3 C 10,3 C 0,3 C 54 % 41 % 1014,9 hPa 0,0 l/m 3,5 km/h (1 Bft) SW 225 0 min 1,1 C 10,3 C 1,8 km/h (1 Bft)
11.04.2023 19:40 9,9 C 11,4 C 8,5 C 9,9 C 9,8 C 0,0 C 54 % 41 % 1014,9 hPa 0,0 l/m 3,1 km/h (1 Bft) W-SW 247 0 min 1,0 C 9,8 C 4,0 km/h (1 Bft)
11.04.2023 19:45 9,9 C 11,4 C 8,3 C 9,8 C 9,6 C 0,0 C 54 % 41 % 1014,6 hPa 0,0 l/m 2,1 km/h (1 Bft) S 180 0 min 1,0 C 9,6 C 2,9 km/h (1 Bft)
11.04.2023 19:50 9,6 C 11,4 C 8,2 C 9,5 C 9,3 C 0,0 C 55 % 42 % 1014,6 hPa 0,0 l/m 1,8 km/h (1 Bft) SW 225 0 min 1,0 C 9,3 C 2,3 km/h (1 Bft)
11.04.2023 19:55 9,6 C 11,4 C 8,0 C 9,4 C 9,1 C 0,0 C 55 % 42 % 1014,6 hPa 0,0 l/m 1,6 km/h (1 Bft) SW 225 0 min 1,0 C 9,1 C 0,0 km/h (0 Bft)
11.04.2023 20:00 9,3 C 11,4 C 7,9 C 9,1 C 8,8 C 0,0 C 56 % 42 % 1014,6 hPa 0,0 l/m 3,4 km/h (1 Bft) W-SW 247 0 min 1,0 C 8,8 C 4,5 km/h (1 Bft)
11.04.2023 20:05 9,2 C 11,4 C 7,7 C 9,0 C 8,6 C 0,0 C 57 % 43 % 1015,1 hPa 0,0 l/m 3,1 km/h (1 Bft) SW 225 0 min 1,1 C 8,6 C 0,0 km/h (0 Bft)
11.04.2023 20:11 8,8 C 11,3 C 7,7 C 8,5 C 7,8 C 0,0 C 61 % 44 % 1015,1 hPa 0,0 l/m 4,7 km/h (1 Bft) N 0 0 min 1,7 C 7,4 C 25,7 km/h (4 Bft)
11.04.2023 20:26 7,9 C 11,4 C 6,6 C 7,5 C 6,8 C 0,0 C 64 % 48 % 1015,6 hPa 0,0 l/m 2,6 km/h (1 Bft) NW 315 0 min 1,5 C 6,8 C 0,0 km/h (0 Bft)
11.04.2023 20:46 7,1 C 11,4 C 5,9 C 6,7 C 5,8 C 0,0 C 68 % 52 % 1015,9 hPa 0,0 l/m 0,0 km/h (0 Bft) SW 225 0 min 1,6 C 5,8 C 0,0 km/h (0 Bft)
11.04.2023 20:55 6,9 C 11,4 C 5,8 C 6,5 C 5,6 C 0,0 C 68 % 52 % 1015,9 hPa 0,0 l/m 0,0 km/h (0 Bft) NW 315 0 min 1,4 C 5,6 C 0,0 km/h (0 Bft)
11.04.2023 21:00 6,7 C 11,4 C 5,6 C 6,3 C 5,5 C 0,0 C 68 % 54 % 1015,9 hPa 0,0 l/m 0,0 km/h (0 Bft) O-NO 67 0 min 1,2 C 5,5 C 0,0 km/h (0 Bft)
11.04.2023 21:05 6,5 C 11,4 C 5,8 C 6,2 C 5,6 C 0,0 C 69 % 54 % 1015,3 hPa 0,0 l/m 0,2 km/h (0 Bft) O-SO 112 0 min 1,2 C 5,6 C 0,0 km/h (0 Bft)
11.04.2023 21:10 6,4 C 11,3 C 5,5 C 6,1 C 5,6 C 0,0 C 70 % 55 % 1015,3 hPa 0,0 l/m 0,2 km/h (0 Bft) O-NO 67 0 min 1,3 C 5,6 C 0,0 km/h (0 Bft)
11.04.2023 21:15 6,4 C 11,3 C 5,5 C 6,1 C 5,5 C 0,0 C 70 % 58 % 1015,3 hPa 0,0 l/m 0,0 km/h (0 Bft) NW 315 0 min 1,3 C 5,5 C 0,0 km/h (0 Bft)
11.04.2023 21:20 6,3 C 11,3 C 5,1 C 6,0 C 5,3 C 0,0 C 71 % 57 % 1015,3 hPa 0,0 l/m 0,0 km/h (0 Bft) N-NO 22 0 min 1,4 C 5,3 C 0,0 km/h (0 Bft)
11.04.2023 21:25 6,2 C 11,3 C 4,8 C 5,8 C 5,0 C 0,0 C 71 % 56 % 1015,8 hPa 0,0 l/m 0,0 km/h (0 Bft) N-NO 22 0 min 1,3 C 5,0 C 0,0 km/h (0 Bft)
11.04.2023 21:30 6,0 C 11,3 C 4,2 C 5,5 C 4,4 C 0,0 C 71 % 55 % 1015,8 hPa 0,0 l/m 0,0 km/h (0 Bft) W-SW 247 0 min 1,1 C 4,4 C 0,0 km/h (0 Bft)
11.04.2023 21:35 5,9 C 11,3 C 4,0 C 5,4 C 4,3 C 0,0 C 72 % 56 % 1015,8 hPa 0,0 l/m 0,0 km/h (0 Bft) W-SW 247 0 min 1,2 C 4,3 C 0,0 km/h (0 Bft)
11.04.2023 21:40 5,6 C 11,3 C 4,0 C 5,0 C 3,9 C 0,0 C 72 % 59 % 1015,8 hPa 0,0 l/m 0,0 km/h (0 Bft) W-SW 247 0 min 1,0 C 3,9 C 0,0 km/h (0 Bft)
11.04.2023 21:45 5,6 C 11,3 C 3,8 C 4,9 C 3,6 C 0,0 C 73 % 59 % 1016,1 hPa 0,0 l/m 0,0 km/h (0 Bft) W-SW 247 0 min 1,2 C 3,6 C 0,0 km/h (0 Bft)
11.04.2023 21:50 5,4 C 11,3 C 3,4 C 4,7 C 3,3 C 0,0 C 74 % 58 % 1016,1 hPa 0,0 l/m 0,0 km/h (0 Bft) O-NO 67 0 min 1,1 C 3,3 C 0,0 km/h (0 Bft)
11.04.2023 21:55 5,3 C 11,3 C 3,3 C 4,6 C 3,2 C 0,0 C 74 % 59 % 1016,1 hPa 0,0 l/m 0,0 km/h (0 Bft) O-NO 67 0 min 1,0 C 3,2 C 0,0 km/h (0 Bft)
11.04.2023 22:00 5,0 C 11,3 C 3,0 C 4,4 C 3,1 C 0,0 C 74 % 61 % 1016,1 hPa 0,0 l/m 0,0 km/h (0 Bft) O-NO 67 0 min 0,8 C 3,1 C 0,0 km/h (0 Bft)
11.04.2023 22:05 4,9 C 11,3 C 3,1 C 4,3 C 3,1 C 0,0 C 75 % 62 % 1015,8 hPa 0,0 l/m 0,0 km/h (0 Bft) O-NO 67 0 min 0,8 C 3,1 C 0,0 km/h (0 Bft)
11.04.2023 22:11 4,7 C 11,3 C 3,4 C 4,2 C 3,1 C 0,0 C 76 % 64 % 1015,8 hPa 0,0 l/m 0,0 km/h (0 Bft) N 0 0 min 0,8 C 3,1 C 0,0 km/h (0 Bft)
11.04.2023 22:34 4,1 C 11,3 C 2,1 C 3,4 C 2,0 C 0,0 C 77 % 63 % 1015,4 hPa 0,0 l/m 0,0 km/h (0 Bft) NO 45 0 min 0,4 C 2,0 C 0,0 km/h (0 Bft)
11.04.2023 22:40 3,9 C 11,3 C 1,9 C 3,2 C 1,9 C 0,0 C 78 % 64 % 1015,4 hPa 0,0 l/m 0,0 km/h (0 Bft) O-NO 67 0 min 0,4 C 1,9 C 0,0 km/h (0 Bft)
11.04.2023 22:45 3,9 C 11,3 C 1,8 C 3,2 C 1,8 C 0,0 C 78 % 64 % 1015,9 hPa 0,0 l/m 0,0 km/h (0 Bft) O-NO 67 0 min 0,4 C 1,8 C 0,0 km/h (0 Bft)
11.04.2023 22:50 3,7 C 11,3 C 1,7 C 2,9 C 1,3 C 0,0 C 78 % 65 % 1015,9 hPa 0,0 l/m 0,0 km/h (0 Bft) SW 225 0 min 0,2 C 1,3 C 0,0 km/h (0 Bft)
11.04.2023 22:55 3,5 C 11,3 C 1,6 C 2,7 C 1,2 C 0,0 C 78 % 65 % 1015,9 hPa 0,0 l/m 0,0 km/h (0 Bft) S 180 0 min 0,0 C 1,2 C 0,0 km/h (0 Bft)
11.04.2023 23:00 3,3 C 11,3 C 1,7 C 2,6 C 1,3 C 0,0 C 79 % 67 % 1015,9 hPa 0,0 l/m 0,0 km/h (0 Bft) S 180 0 min 0,0 C 1,3 C 2,1 km/h (1 Bft)
11.04.2023 23:05 3,3 C 11,3 C 1,8 C 2,7 C 1,4 C 0,0 C 79 % 68 % 1015,9 hPa 0,0 l/m 0,2 km/h (0 Bft) S 180 0 min 0,0 C 1,4 C 0,0 km/h (0 Bft)
11.04.2023 23:10 3,3 C 11,2 C 1,7 C 2,7 C 1,6 C 0,0 C 80 % 69 % 1015,9 hPa 0,0 l/m 0,2 km/h (0 Bft) N-NW 337 0 min 0,2 C 1,6 C 0,0 km/h (0 Bft)
11.04.2023 23:15 3,2 C 11,4 C 1,4 C 2,6 C 1,3 C 0,0 C 80 % 69 % 1015,9 hPa 0,0 l/m 0,0 km/h (0 Bft) N-NW 337 0 min 0,1 C 1,3 C 0,0 km/h (0 Bft)
11.04.2023 23:20 3,1 C 11,3 C 1,2 C 2,4 C 0,9 C 0,0 C 80 % 68 % 1015,9 hPa 0,0 l/m 0,0 km/h (0 Bft) W 270 0 min -0,0 C 0,9 C 0,0 km/h (0 Bft)
11.04.2023 23:25 2,9 C 11,3 C 1,1 C 2,2 C 0,8 C 0,0 C 80 % 68 % 1015,2 hPa 0,0 l/m 0,0 km/h (0 Bft) W 270 0 min -0,2 C 0,8 C 0,0 km/h (0 Bft)
11.04.2023 23:30 2,9 C 11,3 C 0,8 C 2,2 C 0,7 C 0,0 C 81 % 67 % 1015,2 hPa 0,0 l/m 0,0 km/h (0 Bft) W-SW 247 0 min -0,0 C 0,7 C 0,0 km/h (0 Bft)
11.04.2023 23:35 2,8 C 11,3 C 0,8 C 2,1 C 0,6 C 0,0 C 81 % 67 % 1015,2 hPa 0,0 l/m 0,0 km/h (0 Bft) W-SW 247 0 min -0,1 C 0,6 C 0,0 km/h (0 Bft)
11.04.2023 23:40 2,7 C 11,3 C 0,7 C 2,0 C 0,5 C 0,0 C 81 % 67 % 1015,2 hPa 0,0 l/m 0,0 km/h (0 Bft) W-SW 247 0 min -0,2 C 0,5 C 0,0 km/h (0 Bft)
11.04.2023 23:45 2,5 C 11,3 C 0,9 C 1,8 C 0,5 C 0,0 C 81 % 67 % 1015,7 hPa 0,0 l/m 0,0 km/h (0 Bft) W-SW 247 0 min -0,4 C 0,5 C 0,0 km/h (0 Bft)
11.04.2023 23:50 2,4 C 11,3 C 0,7 C 1,8 C 0,5 C 0,0 C 81 % 67 % 1015,7 hPa 0,0 l/m 0,0 km/h (0 Bft) W-SW 247 0 min -0,5 C 0,5 C 0,0 km/h (0 Bft)
11.04.2023 23:55 2,3 C 11,3 C 0,7 C 1,7 C 0,4 C 0,0 C 81 % 67 % 1015,7 hPa 0,0 l/m 0,0 km/h (0 Bft) W-SW 247 0 min -0,6 C 0,4 C 0,0 km/h (0 Bft)
_ Min-Zeit 23:55 23:10 23:40 23:55 23:55 00:00 18:15 17:55 07:00 - 00:00 - - - 23:55 23:55 00:00
Minimum _ 2,3 C 11,2 C 0,7 C 1,7 C 0,4 C 0,0 C 51 % 40 % 1010,7 hPa - 0,0 km/h (0 Bft) - - - -0,6 C 0,4 C 0,0 km/h (0 Bft)
_ Max-Zeit 18:05 05:40 11:40 15:50 15:50 15:45 09:20 08:40 00:05 05:25 14:45 - - 14:30 12:50 15:50 20:11
Maximum _ 12,7 C 11,9 C 14,3 C 16,7 C 16,7 C 4,7 C 86 % 89 % 1016,5 hPa 0,7 l/m 10,3 km/h
S-SW (2 Bft)
- - 10 min 7,6 C 16,7 C 25,7 km/h
N (4 Bft)
Durchschnitt _ 9,0 C 11,5 C 8,3 C 9,5 C 9,1 C 0,7 C 71 % 61 % 1013,2 hPa #2,7 l/m 2,1 km/h (1 Bft) SW - #1:25 h 3,8 C 9,1 C 3,7 km/h (1 Bft)
2023 www.wetterstation-wechselburg.de